createdAt,value
2023-03-19T00:04:12.459Z,81.60
2023-03-19T00:09:13.676Z,81.46
2023-03-19T00:14:15.837Z,82.83
2023-03-19T00:19:15.295Z,84.55
2023-03-19T00:24:16.455Z,84.96
2023-03-19T00:29:17.633Z,85.06
2023-03-19T00:34:18.811Z,85.89
2023-03-19T00:39:20.042Z,85.58
2023-03-19T00:44:22.255Z,85.47
2023-03-19T00:49:21.384Z,85.68
2023-03-19T00:54:22.559Z,86.85
2023-03-19T00:59:23.744Z,85.68
2023-03-19T01:04:24.970Z,85.82
2023-03-19T01:09:26.085Z,85.62
2023-03-19T01:14:27.269Z,85.93
2023-03-19T01:19:28.375Z,86.75
2023-03-19T01:24:29.531Z,86.24
2023-03-19T01:29:30.712Z,86.54
2023-03-19T01:34:32.235Z,87.10
2023-03-19T01:39:33.384Z,87.05
2023-03-19T01:44:34.553Z,87.82
2023-03-19T01:49:35.680Z,88.12
2023-03-19T01:54:36.862Z,88.53
2023-03-19T01:59:37.996Z,88.68
2023-03-19T02:04:39.247Z,88.27
2023-03-19T02:09:40.456Z,88.27
2023-03-19T02:14:41.644Z,87.92
2023-03-19T02:19:42.765Z,88.47
2023-03-19T02:24:44.242Z,88.82
2023-03-19T02:29:43.392Z,89.13
2023-03-19T02:34:44.544Z,88.98
2023-03-19T02:39:45.716Z,88.33
2023-03-19T02:44:46.906Z,88.43
2023-03-19T02:49:48.153Z,88.68
2023-03-19T02:54:49.290Z,89.09
2023-03-19T02:59:50.464Z,88.37
2023-03-19T03:04:51.596Z,88.57
2023-03-19T03:09:53.861Z,87.82
2023-03-19T03:14:53.105Z,86.89
2023-03-19T03:19:54.261Z,86.13
2023-03-19T03:24:55.367Z,85.82
2023-03-19T03:29:55.500Z,85.38
2023-03-19T03:34:56.622Z,83.94
2023-03-19T03:39:57.790Z,83.83
2023-03-19T03:44:59.956Z,82.15
2023-03-19T03:49:59.129Z,83.28
2023-03-19T03:55:00.309Z,82.77
2023-03-19T04:00:01.432Z,79.45
2023-03-19T04:05:02.566Z,80.13
2023-03-19T04:10:04.665Z,79.45
2023-03-19T04:15:03.808Z,80.07
2023-03-19T04:20:03.946Z,79.86
2023-03-19T04:25:05.154Z,81.60
2023-03-19T04:30:06.410Z,80.78
2023-03-19T04:35:07.569Z,81.64
2023-03-19T04:40:08.720Z,81.64
2023-03-19T04:45:09.922Z,81.34
2023-03-19T04:50:11.109Z,81.78
2023-03-19T04:55:12.309Z,82.15
2023-03-19T05:00:13.414Z,82.91
2023-03-19T05:05:14.654Z,82.50
2023-03-19T05:10:15.840Z,80.86
2023-03-19T05:15:17.009Z,81.27
2023-03-19T05:20:18.278Z,81.27
2023-03-19T05:25:19.450Z,81.27
2023-03-19T05:30:20.660Z,81.27
2023-03-19T05:35:21.932Z,81.16
2023-03-19T05:40:23.199Z,81.51
2023-03-19T05:45:25.398Z,82.03
2023-03-19T05:50:24.557Z,81.10
2023-03-19T05:55:25.720Z,81.41
2023-03-19T06:00:26.859Z,83.12
2023-03-19T06:05:28.054Z,80.65
2023-03-19T06:10:29.255Z,78.97
2023-03-19T06:15:31.582Z,73.54
2023-03-19T06:20:30.794Z,74.53
2023-03-19T06:25:32.024Z,74.63
2023-03-19T06:30:33.387Z,67.13
2023-03-19T06:35:32.775Z,65.44
2023-03-19T06:40:34.172Z,64.46
2023-03-19T06:45:33.497Z,64.15
2023-03-19T06:50:34.793Z,63.61
2023-03-19T06:55:37.000Z,64.12
2023-03-19T07:00:36.710Z,64.53
2023-03-19T07:05:36.973Z,69.21
2023-03-19T07:10:36.672Z,70.44
2023-03-19T07:15:36.028Z,70.48
2023-03-19T07:20:37.308Z,69.83
2023-03-19T07:25:38.527Z,70.10
2023-03-19T07:30:39.617Z,70.61
2023-03-19T07:35:40.837Z,68.62
2023-03-19T07:40:51.380Z,67.77
2023-03-19T07:45:42.936Z,66.85
2023-03-19T07:50:42.089Z,67.19
2023-03-19T07:55:44.265Z,63.97
2023-03-19T08:00:44.395Z,64.76
2023-03-19T08:05:43.620Z,65.97
2023-03-19T08:10:44.767Z,63.62
2023-03-19T08:15:45.919Z,63.98
2023-03-19T08:20:48.065Z,60.50
2023-03-19T08:25:47.187Z,60.33
2023-03-19T08:30:48.322Z,61.75
2023-03-19T08:35:50.804Z,60.94
2023-03-19T08:40:51.920Z,61.52
2023-03-19T08:45:51.099Z,61.41
2023-03-19T08:50:52.202Z,58.42
2023-03-19T08:55:53.448Z,57.33
2023-03-19T09:00:54.616Z,56.49
2023-03-19T09:05:56.786Z,56.97
2023-03-19T09:10:55.970Z,56.29
2023-03-19T09:15:57.144Z,56.67
2023-03-19T09:20:58.263Z,55.73
2023-03-19T09:26:00.413Z,55.83
2023-03-19T09:31:00.582Z,56.23
2023-03-19T09:35:59.805Z,55.10
2023-03-19T09:41:01.952Z,53.63
2023-03-19T09:46:01.048Z,54.41
2023-03-19T09:51:02.253Z,54.21
2023-03-19T09:56:03.709Z,53.65
2023-03-19T10:01:04.846Z,53.75
2023-03-19T10:06:06.957Z,52.89
2023-03-19T10:11:07.089Z,52.26
2023-03-19T10:16:06.219Z,51.35
2023-03-19T10:21:07.362Z,50.90
2023-03-19T10:26:08.561Z,50.19
2023-03-19T10:31:09.743Z,50.65
2023-03-19T10:36:14.685Z,48.91
2023-03-19T10:41:12.727Z,48.71
2023-03-19T10:46:11.973Z,49.89
2023-03-19T10:51:14.074Z,50.21
2023-03-19T10:56:14.174Z,50.45
2023-03-19T11:01:14.300Z,49.99
2023-03-19T11:06:13.394Z,48.96
2023-03-19T11:11:14.492Z,49.48
2023-03-19T11:16:15.671Z,48.88
2023-03-19T11:21:17.914Z,49.79
2023-03-19T11:26:17.050Z,50.21
2023-03-19T11:31:18.195Z,51.45
2023-03-19T11:36:19.402Z,49.44
2023-03-19T11:41:20.581Z,49.46
2023-03-19T11:46:22.737Z,49.16
2023-03-19T11:51:22.866Z,48.90
2023-03-19T11:56:22.054Z,50.35
2023-03-19T12:01:23.208Z,50.82
2023-03-19T12:06:24.394Z,51.68
2023-03-19T12:11:26.502Z,50.72
2023-03-19T12:16:25.692Z,48.90
2023-03-19T12:21:26.910Z,50.19
2023-03-19T12:26:29.029Z,50.15
2023-03-19T12:31:28.209Z,50.04
2023-03-19T12:36:29.371Z,50.37
2023-03-19T12:41:31.577Z,50.39
2023-03-19T12:46:30.711Z,50.49
2023-03-19T12:51:32.815Z,51.12
2023-03-19T12:56:31.956Z,51.61
2023-03-19T13:01:33.142Z,50.72
2023-03-19T13:06:35.576Z,51.12
2023-03-19T13:11:35.748Z,51.12
2023-03-19T13:16:35.033Z,50.39
2023-03-19T13:21:36.281Z,51.50
2023-03-19T13:26:37.485Z,53.58
2023-03-19T13:31:38.720Z,53.80
2023-03-19T13:36:39.947Z,54.61
2023-03-19T13:41:41.633Z,54.00
2023-03-19T13:46:40.912Z,53.30
2023-03-19T13:51:42.299Z,55.62
2023-03-19T13:56:43.637Z,57.65
2023-03-19T14:01:45.113Z,55.55
2023-03-19T14:06:44.459Z,55.37
2023-03-19T14:11:45.829Z,55.77
2023-03-19T14:16:47.218Z,55.60
2023-03-19T14:21:48.470Z,56.61
2023-03-19T14:26:48.769Z,58.87
2023-03-19T14:31:50.034Z,59.20
2023-03-19T14:36:51.460Z,61.74
2023-03-19T14:41:52.713Z,61.76
2023-03-19T14:46:53.874Z,61.83
2023-03-19T14:51:55.119Z,62.27
2023-03-19T14:56:58.343Z,69.40
2023-03-19T15:01:57.514Z,72.69
2023-03-19T15:06:58.679Z,75.63
2023-03-19T15:11:59.877Z,77.91
2023-03-19T15:17:01.246Z,80.38
2023-03-19T15:22:01.708Z,80.83
2023-03-19T15:27:03.219Z,81.27
2023-03-19T15:32:05.730Z,80.66
2023-03-19T15:37:03.888Z,81.21
2023-03-19T15:42:05.115Z,79.79
2023-03-19T15:47:06.832Z,82.13
2023-03-19T15:52:06.204Z,81.58
2023-03-19T15:57:07.576Z,80.73
2023-03-19T16:02:08.989Z,79.44
2023-03-19T16:07:10.490Z,78.12
2023-03-19T16:12:09.676Z,80.70
2023-03-19T16:17:11.130Z,78.05
2023-03-19T16:22:10.721Z,78.42
2023-03-19T16:27:10.243Z,77.67
2023-03-19T16:32:09.744Z,77.37
2023-03-19T16:37:09.193Z,78.22
2023-03-19T16:42:08.721Z,79.58
2023-03-19T16:47:09.147Z,79.41
2023-03-19T16:52:09.528Z,80.33
2023-03-19T16:57:09.190Z,80.09
2023-03-19T17:02:07.742Z,78.87
2023-03-19T17:07:09.035Z,81.70
2023-03-19T17:12:10.557Z,77.62
2023-03-19T17:17:10.132Z,80.68
2023-03-19T17:22:09.839Z,81.32
2023-03-19T17:27:10.183Z,81.37
2023-03-19T17:32:13.984Z,79.83
2023-03-19T17:37:09.622Z,80.42
2023-03-19T17:42:08.028Z,83.05
2023-03-19T17:47:09.540Z,84.69
2023-03-19T17:52:09.207Z,86.77
2023-03-19T17:57:08.790Z,88.04
2023-03-19T18:02:08.444Z,90.03
2023-03-19T18:07:08.086Z,91.30
2023-03-19T18:12:07.648Z,91.09
2023-03-19T18:17:07.237Z,92.98
2023-03-19T18:22:06.756Z,91.44
2023-03-19T18:27:10.273Z,95.34
2023-03-19T18:32:06.782Z,91.65
2023-03-19T18:37:06.438Z,94.46
2023-03-19T18:42:10.606Z,93.07
2023-03-19T18:47:07.287Z,97.38
2023-03-19T18:52:06.841Z,97.42
2023-03-19T18:57:10.957Z,98.35
2023-03-19T19:02:06.558Z,99.27
2023-03-19T19:07:08.106Z,99.99
2023-03-19T19:12:06.661Z,99.99
2023-03-19T19:17:06.907Z,99.99
2023-03-19T19:22:06.560Z,99.99
2023-03-19T19:27:06.182Z,99.99
2023-03-19T19:32:05.811Z,99.99
2023-03-19T19:37:05.658Z,99.99
2023-03-19T19:42:07.959Z,99.99
2023-03-19T19:47:10.184Z,99.99
2023-03-19T19:52:07.617Z,99.89
2023-03-19T19:57:06.028Z,99.99
2023-03-19T20:02:07.600Z,99.99
2023-03-19T20:07:08.025Z,99.99
2023-03-19T20:12:07.657Z,99.99
2023-03-19T20:17:07.299Z,99.99
2023-03-19T20:22:06.965Z,99.99
2023-03-19T20:27:06.599Z,99.99
2023-03-19T20:32:05.193Z,99.99
2023-03-19T20:37:07.525Z,99.99
2023-03-19T20:42:06.836Z,99.99
2023-03-19T20:47:08.041Z,99.99
2023-03-19T20:52:09.585Z,99.99
2023-03-19T20:57:09.227Z,99.99
2023-03-19T21:02:08.881Z,99.99
2023-03-19T21:07:08.556Z,99.99
2023-03-19T21:12:08.077Z,99.99
2023-03-19T21:17:08.273Z,99.99
2023-03-19T21:22:09.304Z,99.99
2023-03-19T21:27:08.744Z,99.99
2023-03-19T21:32:10.102Z,99.99
2023-03-19T21:37:11.411Z,99.99
2023-03-19T21:42:13.712Z,99.99
2023-03-19T21:47:13.029Z,99.99
2023-03-19T21:52:14.269Z,99.99
2023-03-19T21:57:15.458Z,99.99
2023-03-19T22:02:16.625Z,99.99
2023-03-19T22:07:17.766Z,99.99
2023-03-19T22:12:19.854Z,99.99
2023-03-19T22:17:18.951Z,99.99
2023-03-19T22:22:20.182Z,99.99
2023-03-19T22:27:22.296Z,99.99
2023-03-19T22:32:21.500Z,99.99
2023-03-19T22:37:22.976Z,99.99
2023-03-19T22:42:24.181Z,99.99
2023-03-19T22:47:25.335Z,99.99
2023-03-19T22:52:26.506Z,99.99
2023-03-19T22:57:29.611Z,99.99
2023-03-19T23:02:28.783Z,99.99
2023-03-19T23:07:29.868Z,99.99
2023-03-19T23:12:30.989Z,99.99
2023-03-19T23:17:32.081Z,99.99
2023-03-19T23:22:35.237Z,99.99
2023-03-19T23:27:34.369Z,99.99
2023-03-19T23:32:35.544Z,99.99
2023-03-19T23:37:36.693Z,99.99
2023-03-19T23:42:37.854Z,99.99
2023-03-19T23:47:39.098Z,99.82
2023-03-19T23:52:44.139Z,99.99
2023-03-19T23:57:42.341Z,99.99
